Time;durP1;ratioP1;P1;durP2;ratioP2;P2;SDS_P1;SDS_P2;PMS_P1;PMS_P2;Temp;Humidity;BMP_temperature;BMP_pressure;BME280_temperature;BME280_humidity;BME280_pressure;Samples;Min_cycle;Max_cycle;Signal;HPM_P1;HPM_P2
2021/09/01 00:01:31;;;;;;;3.30;2.10;;;;;;;14.99;85.95;100227.77;227289;1201;139609;-74
2021/09/01 00:06:33;;;;;;;1.60;1.40;;;;;;;15.03;85.94;100232.17;226960;1209;139410;-75
2021/09/01 00:11:34;;;;;;;2.00;1.40;;;;;;;15.04;86.20;100233.63;226946;1201;139320;-75
2021/09/01 00:16:37;;;;;;;2.50;1.40;;;;;;;15.03;86.14;100234.72;226944;1208;139263;-75
2021/09/01 00:21:39;;;;;;;1.50;1.40;;;;;;;15.07;86.14;100234.08;227835;1201;139280;-74
2021/09/01 00:26:42;;;;;;;1.90;1.80;;;;;;;14.93;86.38;100240.95;227426;1201;138885;-75
2021/09/01 00:31:43;;;;;;;2.20;1.60;;;;;;;14.90;86.79;100239.89;234020;1200;138365;-74
2021/09/01 00:36:45;;;;;;;2.10;1.60;;;;;;;14.87;86.71;100238.09;233969;1200;139802;-75
2021/09/01 00:41:47;;;;;;;1.30;1.20;;;;;;;14.87;86.67;100241.83;227322;1200;139286;-74
2021/09/01 00:46:50;;;;;;;2.00;1.30;;;;;;;14.88;86.85;100249.09;228499;1201;138866;-75
2021/09/01 00:51:52;;;;;;;1.10;1.10;;;;;;;14.93;87.05;100254.09;227286;1208;138776;-75
2021/09/01 00:57:02;;;;;;;3.40;1.40;;;;;;;14.92;86.82;100254.88;227124;1209;138541;-75
2021/09/01 01:02:05;;;;;;;1.10;1.10;;;;;;;14.85;87.29;100259.08;227972;1208;138453;-75
2021/09/01 01:07:10;;;;;;;1.90;1.50;;;;;;;14.76;87.64;100263.36;227908;1209;139237;-74
2021/09/01 01:12:15;;;;;;;1.70;1.40;;;;;;;14.77;87.88;100266.11;227681;1208;139302;-75
2021/09/01 01:17:19;;;;;;;1.30;1.00;;;;;;;14.72;87.92;100269.50;227913;1201;139847;-74
2021/09/01 01:22:24;;;;;;;1.50;1.30;;;;;;;14.78;87.68;100276.36;227788;1201;138924;-76
2021/09/01 01:27:43;;;;;;;2.50;1.30;;;;;;;14.79;87.48;100277.60;227975;1200;139266;-75
2021/09/01 01:32:47;;;;;;;1.30;1.20;;;;;;;14.75;87.54;100281.04;227876;1209;138701;-75
2021/09/01 01:37:49;;;;;;;1.20;1.10;;;;;;;14.73;87.58;100284.80;227651;1209;138535;-73
2021/09/01 01:42:53;;;;;;;1.10;1.00;;;;;;;14.71;87.68;100282.77;227603;1201;139511;-73
2021/09/01 01:47:55;;;;;;;2.00;1.30;;;;;;;14.75;87.60;100288.65;227172;1202;139300;-75
2021/09/01 01:52:57;;;;;;;2.60;1.10;;;;;;;14.73;87.29;100289.48;227645;1201;139218;-75
2021/09/01 01:57:59;;;;;;;1.60;1.20;;;;;;;14.74;87.21;100288.75;231986;1208;138737;-75
2021/09/01 02:03:01;;;;;;;1.20;1.10;;;;;;;14.75;87.17;100291.22;229552;1201;138425;-75
2021/09/01 02:08:03;;;;;;;1.90;1.10;;;;;;;14.69;87.19;100289.74;226956;1208;139606;-75
2021/09/01 02:13:05;;;;;;;1.20;1.10;;;;;;;14.63;87.55;100294.77;227241;1209;139044;-74
2021/09/01 02:18:06;;;;;;;1.20;1.10;;;;;;;14.65;87.27;100299.47;227964;1201;138746;-74
2021/09/01 02:23:08;;;;;;;1.00;1.00;;;;;;;14.57;87.59;100302.48;227809;1208;138887;-75
2021/09/01 02:28:10;;;;;;;1.30;1.20;;;;;;;14.61;87.42;100307.38;227856;1208;138711;-74
2021/09/01 02:33:11;;;;;;;1.90;1.50;;;;;;;14.54;87.67;100306.45;227898;1205;138243;-75
2021/09/01 02:38:13;;;;;;;1.40;1.30;;;;;;;14.51;87.79;100307.70;227174;1208;138386;-75
2021/09/01 02:43:15;;;;;;;2.20;1.30;;;;;;;14.42;88.01;100314.54;227880;1208;139294;-74
2021/09/01 02:48:16;;;;;;;1.40;1.10;;;;;;;14.45;88.19;100319.63;228438;1208;139224;-74
2021/09/01 02:53:18;;;;;;;2.90;1.50;;;;;;;14.49;87.86;100313.73;227941;1202;139086;-74
2021/09/01 02:58:20;;;;;;;2.40;1.40;;;;;;;14.50;87.83;100325.05;227877;1201;139420;-74
2021/09/01 03:03:21;;;;;;;2.60;1.50;;;;;;;14.51;87.76;100326.50;227146;1208;138467;-75
2021/09/01 03:08:23;;;;;;;2.40;1.30;;;;;;;14.46;87.79;100334.10;227918;1202;138535;-75
2021/09/01 03:13:25;;;;;;;1.40;1.30;;;;;;;14.39;88.00;100337.70;227465;1208;139294;-73
2021/09/01 03:18:26;;;;;;;1.90;1.30;;;;;;;14.38;88.01;100342.95;227121;1208;139394;-75
2021/09/01 03:23:28;;;;;;;3.20;1.20;;;;;;;14.35;88.03;100341.05;227370;1201;138816;-75
2021/09/01 03:28:30;;;;;;;2.10;1.30;;;;;;;14.38;87.97;100344.05;227957;1206;139869;-76
2021/09/01 03:33:32;;;;;;;1.60;1.50;;;;;;;14.40;87.91;100356.11;227891;1202;138371;-74
2021/09/01 03:38:34;;;;;;;2.30;1.30;;;;;;;14.39;87.77;100366.04;227389;1210;138866;-77
2021/09/01 03:43:35;;;;;;;2.10;1.10;;;;;;;14.35;87.96;100365.48;227875;1204;139656;-74
2021/09/01 03:48:37;;;;;;;1.50;1.40;;;;;;;14.39;87.63;100375.98;227927;1202;139668;-75
2021/09/01 03:53:38;;;;;;;2.60;1.60;;;;;;;14.42;87.51;100379.05;227840;1201;139554;-74
2021/09/01 03:58:40;;;;;;;1.70;1.60;;;;;;;14.43;87.35;100382.06;228001;1206;139077;-75
2021/09/01 04:03:42;;;;;;;1.70;1.60;;;;;;;14.37;87.49;100385.21;227790;1202;138317;-75
2021/09/01 04:08:43;;;;;;;1.70;1.30;;;;;;;14.30;87.66;100387.92;228007;1202;138445;-75
2021/09/01 04:13:45;;;;;;;1.70;1.60;;;;;;;14.25;87.98;100398.59;228016;1202;141303;-75
2021/09/01 04:18:47;;;;;;;2.60;1.60;;;;;;;14.25;87.97;100406.94;227921;1202;140850;-74
2021/09/01 04:23:48;;;;;;;1.80;1.70;;;;;;;14.24;87.78;100412.89;227858;1201;138989;-74
2021/09/01 04:28:50;;;;;;;4.90;2.60;;;;;;;14.30;87.58;100420.76;226644;1206;276359;-76
2021/09/01 04:33:52;;;;;;;2.60;2.30;;;;;;;14.33;87.53;100427.24;226953;1209;139238;-76
2021/09/01 04:38:54;;;;;;;2.80;2.50;;;;;;;14.30;87.45;100436.11;228089;1201;138914;-76
2021/09/01 04:43:55;;;;;;;2.90;2.70;;;;;;;14.21;87.80;100437.61;227844;1202;138446;-74
2021/09/01 04:48:57;;;;;;;3.30;3.00;;;;;;;14.16;87.79;100437.32;226979;1211;139712;-75
2021/09/01 04:53:59;;;;;;;4.10;3.60;;;;;;;14.16;87.92;100447.45;227472;1210;139135;-76
2021/09/01 04:59:01;;;;;;;4.60;3.20;;;;;;;14.19;87.68;100453.85;227866;1202;139380;-77
2021/09/01 05:04:02;;;;;;;4.90;4.10;;;;;;;14.24;87.66;100457.38;227905;1205;139369;-75
2021/09/01 05:09:04;;;;;;;5.20;4.60;;;;;;;14.22;87.59;100463.56;227833;1210;138523;-75
2021/09/01 05:14:06;;;;;;;7.30;5.60;;;;;;;14.22;87.52;100467.52;227904;1209;138751;-75
2021/09/01 05:19:07;;;;;;;5.80;5.30;;;;;;;14.11;87.71;100468.58;232303;1206;138238;-73
2021/09/01 05:24:22;;;;;;;6.00;5.50;;;;;;;14.08;87.87;100465.27;228375;1208;138733;-76
2021/09/01 05:29:28;;;;;;;6.70;5.30;;;;;;;14.06;88.01;100466.01;228009;1206;138731;-74
2021/09/01 05:34:30;;;;;;;7.10;6.30;;;;;;;14.12;88.05;100470.94;227952;1201;139259;-76
2021/09/01 05:39:32;;;;;;;7.40;6.70;;;;;;;14.12;87.97;100479.47;227958;1201;140220;-74
2021/09/01 05:44:35;;;;;;;8.80;6.40;;;;;;;14.10;88.12;100484.27;228080;1201;138573;-74
2021/09/01 05:49:39;;;;;;;9.30;8.00;;;;;;;14.13;87.93;100486.58;227331;1206;138682;-75
2021/09/01 05:54:43;;;;;;;7.30;6.20;;;;;;;14.10;88.14;100501.88;227988;1201;140223;-76
2021/09/01 05:59:53;;;;;;;7.70;6.70;;;;;;;14.07;88.14;100509.98;227854;1202;139423;-75
2021/09/01 06:04:58;;;;;;;8.80;6.20;;;;;;;14.06;88.27;100511.29;226948;1208;139578;-76
2021/09/01 06:10:02;;;;;;;8.90;8.00;;;;;;;14.15;87.95;100515.48;227710;1201;138669;-76
2021/09/01 06:15:04;;;;;;;7.70;6.20;;;;;;;14.18;87.64;100521.06;227997;1201;139349;-73
2021/09/01 06:20:07;;;;;;;8.50;6.50;;;;;;;14.21;87.40;100526.08;229323;1201;138951;-75
2021/09/01 06:25:09;;;;;;;9.00;7.00;;;;;;;14.29;87.20;100526.51;233265;1202;138534;-75
2021/09/01 06:30:11;;;;;;;7.80;7.00;;;;;;;14.26;87.23;100528.71;232579;1202;138478;-75
2021/09/01 06:35:13;;;;;;;9.40;7.80;;;;;;;14.21;87.53;100538.00;229858;1201;139389;-75
2021/09/01 06:40:17;;;;;;;7.30;6.50;;;;;;;14.26;87.20;100540.61;229019;1202;139835;-75
2021/09/01 06:45:19;;;;;;;7.70;6.80;;;;;;;14.33;86.58;100548.27;227766;1205;139345;-76
2021/09/01 06:50:23;;;;;;;8.00;6.90;;;;;;;14.35;86.68;100549.52;228070;1201;138974;-72
2021/09/01 06:55:25;;;;;;;8.20;6.80;;;;;;;14.34;86.52;100554.55;228105;1202;139094;-75
2021/09/01 07:00:27;;;;;;;7.00;6.30;;;;;;;14.38;86.46;100561.39;230775;1205;139215;-73
2021/09/01 07:05:32;;;;;;;8.80;6.90;;;;;;;14.37;86.43;100563.23;230629;1208;138824;-73
2021/09/01 07:10:33;;;;;;;7.30;5.70;;;;;;;14.52;86.52;100572.48;227843;1201;138786;-75
2021/09/01 07:15:35;;;;;;;7.50;6.50;;;;;;;14.64;85.97;100569.16;226967;1203;138902;-75
2021/09/01 07:20:38;;;;;;;6.80;6.20;;;;;;;14.69;84.78;100573.13;227875;1201;138916;-76
2021/09/01 07:25:40;;;;;;;7.00;6.30;;;;;;;14.79;84.61;100579.77;228489;1206;138988;-75
2021/09/01 07:30:41;;;;;;;14.40;6.90;;;;;;;14.84;84.85;100592.40;227567;1201;138783;-75
2021/09/01 07:35:45;;;;;;;8.20;5.70;;;;;;;14.88;84.77;100595.66;228064;1206;139030;-75
2021/09/01 07:40:47;;;;;;;6.40;5.60;;;;;;;14.98;84.49;100602.77;227741;1201;138862;-75
2021/09/01 07:45:48;;;;;;;10.00;5.80;;;;;;;15.11;83.86;100595.86;227939;1202;138944;-74
2021/09/01 07:50:51;;;;;;;8.50;5.80;;;;;;;15.32;82.73;100599.94;227992;1201;138690;-75
2021/09/01 07:55:53;;;;;;;5.30;4.60;;;;;;;15.42;82.19;100606.09;227955;1201;139177;-74
2021/09/01 08:00:55;;;;;;;7.30;4.80;;;;;;;15.34;80.86;100606.64;227370;1202;139497;-76
2021/09/01 08:05:56;;;;;;;8.40;4.90;;;;;;;15.36;80.19;100612.81;227448;1201;139568;-75
2021/09/01 08:10:59;;;;;;;9.00;5.90;;;;;;;15.37;79.55;100611.91;227232;1202;138499;-76
2021/09/01 08:16:00;;;;;;;7.60;5.00;;;;;;;15.34;78.65;100611.23;228021;1201;138843;-75
2021/09/01 08:21:02;;;;;;;7.50;5.50;;;;;;;15.24;78.29;100618.80;227850;1208;139654;-75
2021/09/01 08:26:05;;;;;;;11.60;8.60;;;;;;;15.34;79.11;100623.34;227953;1202;138562;-75
2021/09/01 08:31:07;;;;;;;6.20;5.60;;;;;;;15.44;77.64;100625.46;227126;1208;138592;-74
2021/09/01 08:36:08;;;;;;;8.90;5.40;;;;;;;15.32;78.18;100636.20;231308;1200;138758;-74
2021/09/01 08:41:10;;;;;;;4.40;4.00;;;;;;;15.27;78.85;100641.48;228503;1201;139073;-74
2021/09/01 08:46:13;;;;;;;7.30;4.70;;;;;;;15.35;77.95;100643.26;226984;1208;138855;-74
2021/09/01 08:51:15;;;;;;;5.50;5.00;;;;;;;15.45;76.70;100645.27;227317;1201;138603;-74
2021/09/01 08:56:19;;;;;;;6.30;4.60;;;;;;;15.37;76.12;100655.13;227473;1202;138529;-75
2021/09/01 09:01:57;;;;;;;5.50;4.80;;;;;;;15.34;76.74;100659.88;227717;1208;139256;-75
2021/09/01 09:07:01;;;;;;;9.90;6.00;;;;;;;15.40;76.65;100661.87;227805;1201;138688;-73
2021/09/01 09:12:05;;;;;;;6.90;5.10;;;;;;;15.54;75.65;100661.36;227405;1201;138866;-74
2021/09/01 09:17:13;;;;;;;13.00;8.10;;;;;;;15.65;75.59;100664.11;227242;1201;138918;-74
2021/09/01 09:22:21;;;;;;;5.60;4.50;;;;;;;15.86;74.95;100665.41;227047;1208;139412;-74
2021/09/01 09:27:40;;;;;;;6.10;4.70;;;;;;;15.94;73.15;100668.04;227474;1201;138322;-74
2021/09/01 09:33:01;;;;;;;6.10;4.50;;;;;;;16.09;72.76;100665.73;227316;1202;138736;-72
2021/09/01 09:38:05;;;;;;;6.40;4.50;;;;;;;16.41;71.12;100668.27;228209;1200;139113;-74
2021/09/01 09:43:15;;;;;;;6.20;4.50;;;;;;;16.39;69.50;100673.23;228328;1206;139387;-77
2021/09/01 09:48:38;;;;;;;6.50;5.50;;;;;;;16.41;69.79;100677.30;227968;1208;138017;-75
2021/09/01 09:53:51;;;;;;;5.30;4.80;;;;;;;16.57;70.08;100673.77;227947;1201;139195;-77
2021/09/01 09:58:56;;;;;;;5.80;4.50;;;;;;;16.52;69.87;100685.58;228302;1201;138808;-77
2021/09/01 10:03:59;;;;;;;5.10;4.00;;;;;;;16.58;70.23;100685.58;228129;1200;138405;-77
2021/09/01 10:09:04;;;;;;;4.70;4.10;;;;;;;16.54;70.84;100689.01;227958;1208;139028;-74
2021/09/01 10:14:07;;;;;;;6.70;4.80;;;;;;;16.72;69.78;100686.08;227890;1206;138688;-76
2021/09/01 10:19:14;;;;;;;5.20;4.30;;;;;;;16.99;69.62;100685.59;227946;1202;139368;-74
2021/09/01 10:24:17;;;;;;;;;;;;;;;17.37;67.71;100680.25;228318;1201;139048;-75
2021/09/01 10:29:41;;;;;;;4.60;3.40;;;;;;;17.61;65.67;100679.77;228077;1208;124997;-75
2021/09/01 10:34:43;;;;;;;4.90;3.80;;;;;;;17.62;66.67;100688.88;227843;1208;138646;-74
2021/09/01 10:39:44;;;;;;;3.70;3.30;;;;;;;17.15;67.94;100702.13;227994;1201;138669;-75
2021/09/01 10:44:48;;;;;;;6.30;5.70;;;;;;;17.05;68.39;100697.37;227890;1206;139281;-75
2021/09/01 10:50:06;;;;;;;7.10;6.40;;;;;;;17.38;67.00;100703.08;228044;1208;138474;-75
2021/09/01 10:55:09;;;;;;;8.40;7.30;;;;;;;17.95;66.61;100695.43;227903;1201;138909;-74
2021/09/01 11:00:15;;;;;;;5.60;4.60;;;;;;;17.81;65.18;100696.63;227970;1208;138549;-73
2021/09/01 11:05:22;;;;;;;5.80;4.60;;;;;;;17.44;66.33;100705.55;227821;1202;138854;-74
2021/09/01 11:10:26;;;;;;;5.80;5.20;;;;;;;17.60;66.92;100706.05;227311;1201;139309;-74
2021/09/01 11:15:43;;;;;;;5.20;4.10;;;;;;;18.44;64.72;100697.73;228305;1200;139076;-73
2021/09/01 11:20:53;;;;;;;5.00;3.30;;;;;;;18.68;62.50;100702.05;226930;1208;139581;-73
2021/09/01 11:25:55;;;;;;;4.70;4.30;;;;;;;18.38;62.48;100707.59;228290;1208;138880;-74
2021/09/01 11:30:59;;;;;;;3.80;3.50;;;;;;;17.94;62.86;100711.79;226918;1208;138736;-74
2021/09/01 11:36:01;;;;;;;3.70;2.80;;;;;;;18.16;61.76;100717.19;227013;1200;138749;-74
2021/09/01 11:41:03;;;;;;;9.20;5.20;;;;;;;18.72;62.24;100716.61;226870;1208;138569;-74
2021/09/01 11:46:05;;;;;;;6.50;4.00;;;;;;;18.33;63.61;100722.14;227753;1201;139772;-74
2021/09/01 11:51:07;;;;;;;5.50;3.00;;;;;;;18.16;64.19;100729.34;227951;1201;138860;-75
2021/09/01 11:56:10;;;;;;;3.60;2.90;;;;;;;18.50;63.92;100724.27;228960;1200;138224;-75
2021/09/01 12:01:14;;;;;;;2.80;1.90;;;;;;;19.15;58.43;100721.23;229300;1207;138171;-74
2021/09/01 12:06:16;;;;;;;3.20;2.20;;;;;;;19.34;56.71;100727.45;228087;1208;138221;-74
2021/09/01 12:11:18;;;;;;;5.40;1.60;;;;;;;19.04;57.40;100723.56;228061;1201;138334;-74
2021/09/01 12:16:26;;;;;;;1.70;1.40;;;;;;;18.81;57.46;100723.01;227760;1201;138821;-74
2021/09/01 12:21:54;;;;;;;2.50;1.50;;;;;;;18.88;58.34;100729.75;228047;1201;139043;-75
2021/09/01 12:27:08;;;;;;;1.80;1.60;;;;;;;18.78;58.34;100736.21;227945;1201;138116;-75
2021/09/01 12:32:16;;;;;;;2.30;1.60;;;;;;;18.34;60.47;100738.65;226950;1207;138567;-77
2021/09/01 12:37:25;;;;;;;3.40;1.60;;;;;;;18.15;60.31;100733.98;227914;1200;138260;-73
2021/09/01 12:42:34;;;;;;;4.90;1.80;;;;;;;18.57;58.82;100733.77;227340;1201;138731;-75
2021/09/01 12:47:50;;;;;;;2.80;1.20;;;;;;;18.43;59.37;100734.83;227986;1201;139381;-78
2021/09/01 12:52:52;;;;;;;3.40;1.90;;;;;;;18.37;58.55;100741.39;227660;1201;138091;-74
2021/09/01 12:57:53;;;;;;;2.00;1.50;;;;;;;18.54;59.29;100731.11;227990;1201;138386;-74
2021/09/01 13:02:55;;;;;;;5.40;1.50;;;;;;;18.64;60.08;100733.02;227878;1200;138108;-74
2021/09/01 13:07:57;;;;;;;1.70;1.60;;;;;;;18.86;58.82;100729.27;227869;1201;138149;-76
2021/09/01 13:12:59;;;;;;;6.70;1.90;;;;;;;18.87;59.07;100729.39;227922;1201;139005;-75
2021/09/01 13:18:00;;;;;;;1.20;1.00;;;;;;;18.76;58.86;100739.09;227668;1201;138576;-74
2021/09/01 13:23:02;;;;;;;4.30;1.30;;;;;;;18.72;58.35;100741.40;227417;1208;139564;-76
2021/09/01 13:28:04;;;;;;;3.60;1.20;;;;;;;18.90;56.96;100752.02;227948;1201;138477;-75
2021/09/01 13:33:06;;;;;;;1.40;1.00;;;;;;;18.87;58.49;100745.65;227941;1204;138476;-73
2021/09/01 13:38:07;;;;;;;2.60;1.30;;;;;;;18.57;60.40;100751.06;226893;1201;138593;-75
2021/09/01 13:43:09;;;;;;;1.70;1.50;;;;;;;18.30;61.01;100759.48;227232;1202;138560;-76
2021/09/01 13:48:12;;;;;;;3.80;1.40;;;;;;;18.12;60.65;100761.01;227020;1208;138846;-74
2021/09/01 13:53:14;;;;;;;2.20;1.10;;;;;;;18.19;60.90;100759.48;227843;1201;138572;-78
2021/09/01 13:58:15;;;;;;;2.30;1.10;;;;;;;18.24;60.63;100759.36;227856;1201;151815;-74
2021/09/01 14:03:22;;;;;;;5.70;1.70;;;;;;;18.29;60.38;100759.41;227254;1208;138937;-75
2021/09/01 14:08:23;;;;;;;3.60;1.40;;;;;;;18.38;59.92;100761.86;227279;1208;138529;-75
2021/09/01 14:13:25;;;;;;;3.00;1.50;;;;;;;18.34;57.09;100762.86;227997;1201;138122;-75
2021/09/01 14:18:28;;;;;;;3.70;1.10;;;;;;;18.53;55.83;100762.98;227900;1201;140842;-71
2021/09/01 14:23:29;;;;;;;3.30;1.00;;;;;;;18.69;55.35;100763.05;227974;1201;138418;-74
2021/09/01 14:28:31;;;;;;;5.90;1.30;;;;;;;18.73;56.96;100759.52;227021;1208;138328;-73
2021/09/01 14:33:33;;;;;;;2.40;0.70;;;;;;;18.63;56.00;100765.85;227509;1200;138312;-74
2021/09/01 14:38:35;;;;;;;2.40;0.70;;;;;;;18.43;55.92;100768.23;227037;1207;139167;-75
2021/09/01 14:43:36;;;;;;;2.90;0.80;;;;;;;18.33;56.67;100768.48;227771;1201;138068;-74
2021/09/01 14:48:38;;;;;;;1.70;0.90;;;;;;;18.23;57.41;100769.81;227592;1201;138526;-75
2021/09/01 14:53:40;;;;;;;4.20;1.20;;;;;;;18.23;57.29;100773.39;227942;1201;138126;-77
2021/09/01 14:58:41;;;;;;;4.00;0.90;;;;;;;18.35;56.19;100780.66;227902;1201;138523;-73
2021/09/01 15:03:43;;;;;;;1.70;0.70;;;;;;;18.39;56.12;100775.48;226905;1207;138745;-75
2021/09/01 15:08:45;;;;;;;5.50;1.30;;;;;;;18.32;55.62;100776.51;227958;1201;138593;-75
2021/09/01 15:13:46;;;;;;;2.60;1.10;;;;;;;18.22;56.67;100772.02;227295;1209;138347;-73
2021/09/01 15:18:48;;;;;;;1.30;0.90;;;;;;;18.11;56.45;100775.08;227359;1201;139278;-73
2021/09/01 15:23:49;;;;;;;3.40;1.50;;;;;;;18.13;56.72;100773.73;228022;1201;138149;-75
2021/09/01 15:28:51;;;;;;;4.00;1.10;;;;;;;18.14;56.09;100775.05;228195;1201;138190;-76
2021/09/01 15:33:53;;;;;;;2.10;1.30;;;;;;;18.07;56.27;100778.61;227873;1201;138688;-76
2021/09/01 15:38:55;;;;;;;1.50;0.80;;;;;;;18.00;56.69;100777.85;227984;1201;138374;-77
2021/09/01 15:43:58;;;;;;;1.90;0.80;;;;;;;18.00;56.86;100777.40;227934;1200;138626;-76
2021/09/01 15:49:02;;;;;;;3.20;1.60;;;;;;;17.99;57.46;100782.54;227979;1201;139037;-74
2021/09/01 15:54:09;;;;;;;1.70;1.00;;;;;;;17.95;58.06;100779.63;228179;1201;138551;-77
2021/09/01 15:59:14;;;;;;;1.20;0.80;;;;;;;17.87;58.53;100780.21;227921;1201;139357;-74
2021/09/01 16:04:16;;;;;;;1.50;1.00;;;;;;;17.79;58.80;100779.76;227837;1202;138818;-79
2021/09/01 16:09:19;;;;;;;1.90;0.70;;;;;;;17.74;59.50;100783.63;227899;1201;138548;-77
2021/09/01 16:14:40;;;;;;;2.00;1.40;;;;;;;17.68;60.04;100781.55;227992;1208;138657;-80
2021/09/01 16:20:04;;;;;;;2.70;1.50;;;;;;;17.62;60.57;100782.06;228035;1201;138728;-76
2021/09/01 16:25:09;;;;;;;2.00;1.20;;;;;;;17.53;60.82;100789.95;227947;1200;139781;-77
2021/09/01 16:30:13;;;;;;;2.30;1.20;;;;;;;17.45;61.73;100786.35;228134;1201;138575;-75
2021/09/01 16:35:15;;;;;;;5.10;1.40;;;;;;;17.40;61.56;100784.64;228034;1201;138493;-73
2021/09/01 16:40:27;;;;;;;1.50;1.20;;;;;;;17.41;60.92;100788.24;227936;1204;139446;-76
2021/09/01 16:45:29;;;;;;;2.50;1.70;;;;;;;17.36;60.40;100786.98;227914;1200;138869;-76
2021/09/01 16:50:31;;;;;;;1.80;1.40;;;;;;;17.39;60.89;100791.30;228000;1201;138555;-75
2021/09/01 16:55:33;;;;;;;2.20;1.30;;;;;;;17.25;61.05;100795.48;227843;1208;138147;-75
2021/09/01 17:00:43;;;;;;;2.90;1.60;;;;;;;17.14;61.21;100805.24;227936;1201;139704;-75
2021/09/01 17:05:45;;;;;;;3.60;2.00;;;;;;;16.95;61.83;100810.73;227719;1208;138273;-77
2021/09/01 17:10:47;;;;;;;3.40;1.40;;;;;;;16.82;62.12;100814.69;227989;1201;138644;-75
2021/09/01 17:15:50;;;;;;;4.30;1.60;;;;;;;16.73;62.69;100822.20;227990;1201;139102;-76
2021/09/01 17:20:52;;;;;;;4.50;2.20;;;;;;;16.61;63.07;100823.41;227915;1201;139077;-75
2021/09/01 17:25:57;;;;;;;5.30;2.60;;;;;;;16.49;63.77;100825.46;227959;1201;138393;-76
2021/09/01 17:31:06;;;;;;;4.40;3.60;;;;;;;16.52;63.49;100829.55;227925;1201;138498;-75
2021/09/01 17:36:08;;;;;;;2.30;2.10;;;;;;;16.50;63.65;100830.17;227930;1201;138602;-75
2021/09/01 17:41:15;;;;;;;5.00;3.10;;;;;;;16.52;63.66;100834.71;227984;1201;138105;-74
2021/09/01 17:46:16;;;;;;;3.30;1.90;;;;;;;16.40;64.10;100843.85;227883;1201;138523;-75
2021/09/01 17:51:20;;;;;;;4.00;1.80;;;;;;;16.28;64.85;100851.15;227985;1201;139040;-77
2021/09/01 17:56:22;;;;;;;3.20;1.90;;;;;;;16.21;65.34;100853.05;228048;1200;139228;-76
2021/09/01 18:01:23;;;;;;;2.40;1.70;;;;;;;16.20;65.56;100864.27;227959;1201;138515;-76
2021/09/01 18:06:25;;;;;;;3.60;1.90;;;;;;;16.08;65.77;100875.20;227905;1201;138803;-79
2021/09/01 18:11:27;;;;;;;4.70;2.40;;;;;;;16.17;65.83;100883.08;228028;1200;138558;-78
2021/09/01 18:16:29;;;;;;;2.60;1.90;;;;;;;16.26;65.03;100890.79;227867;1201;138130;-76
2021/09/01 18:21:31;;;;;;;3.30;2.10;;;;;;;16.17;65.41;100893.69;227962;1201;139300;-79
2021/09/01 18:26:32;;;;;;;2.80;1.70;;;;;;;16.16;65.05;100891.66;227941;1201;139023;-79
2021/09/01 18:31:34;;;;;;;6.10;1.90;;;;;;;16.03;64.94;100893.00;228109;1201;141387;-77
2021/09/01 18:36:36;;;;;;;3.70;1.70;;;;;;;15.86;65.46;100898.84;228196;1201;138861;-72
2021/09/01 18:41:40;;;;;;;3.10;2.10;;;;;;;15.82;65.78;100900.69;229994;1201;138918;-75
2021/09/01 18:46:41;;;;;;;4.50;2.30;;;;;;;15.83;65.71;100907.73;227934;1201;139164;-75
2021/09/01 18:51:43;;;;;;;6.40;2.40;;;;;;;15.74;66.17;100911.26;227668;1201;139341;-75
2021/09/01 18:56:46;;;;;;;5.40;3.30;;;;;;;15.76;66.55;100917.38;228072;1201;138919;-75
2021/09/01 19:02:06;;;;;;;2.80;2.40;;;;;;;15.69;66.84;100921.92;227939;1202;138445;-75
2021/09/01 19:07:16;;;;;;;3.20;2.00;;;;;;;15.56;67.81;100925.06;228014;1208;138988;-72
2021/09/01 19:12:18;;;;;;;2.40;2.00;;;;;;;15.38;68.62;100920.10;227551;1200;138970;-76
2021/09/01 19:17:22;;;;;;;3.70;2.10;;;;;;;15.39;68.42;100922.55;227859;1200;139398;-75
2021/09/01 19:22:29;;;;;;;5.20;2.80;;;;;;;15.52;67.81;100921.52;228013;1201;139590;-75
2021/09/01 19:27:34;;;;;;;6.30;2.70;;;;;;;15.58;67.40;100914.14;227940;1201;139145;-77
2021/09/01 19:32:36;;;;;;;4.70;3.70;;;;;;;15.49;67.41;100915.14;228068;1201;138679;-76
2021/09/01 19:37:41;;;;;;;6.70;2.90;;;;;;;15.39;67.81;100921.69;228052;1201;138405;-76
2021/09/01 19:42:44;;;;;;;4.50;2.60;;;;;;;15.36;67.92;100921.70;229839;1202;138518;-76
2021/09/01 19:47:46;;;;;;;4.50;3.10;;;;;;;15.25;68.30;100923.30;228315;1199;138531;-75
2021/09/01 19:52:52;;;;;;;5.20;2.60;;;;;;;15.13;68.67;100926.20;227897;1201;138469;-75
2021/09/01 19:57:54;;;;;;;4.20;2.80;;;;;;;15.12;68.79;100926.19;227965;1208;139157;-74
2021/09/01 20:02:57;;;;;;;2.70;2.50;;;;;;;15.22;68.53;100927.86;227933;1201;138747;-74
2021/09/01 20:08:00;;;;;;;4.80;3.30;;;;;;;15.32;68.31;100928.16;227619;1207;139670;-76
2021/09/01 20:13:02;;;;;;;4.90;3.10;;;;;;;15.21;68.35;100929.25;228053;1201;138258;-75
2021/09/01 20:18:04;;;;;;;3.30;2.50;;;;;;;15.09;69.24;100938.34;227988;1201;138232;-75
2021/09/01 20:23:08;;;;;;;4.20;3.40;;;;;;;15.11;69.35;100937.30;227911;1208;138556;-74
2021/09/01 20:28:09;;;;;;;5.70;3.20;;;;;;;15.04;69.53;100942.67;228001;1201;139190;-75
2021/09/01 20:33:11;;;;;;;6.00;3.10;;;;;;;14.96;70.10;100941.07;227871;1201;139438;-76
2021/09/01 20:38:13;;;;;;;4.20;3.00;;;;;;;14.93;69.89;100941.92;227503;1201;139075;-80
2021/09/01 20:43:22;;;;;;;3.40;3.10;;;;;;;14.82;70.65;100943.16;227998;1208;138582;-75
2021/09/01 20:48:28;;;;;;;3.80;2.90;;;;;;;14.86;70.83;100950.85;227916;1201;138156;-76
2021/09/01 20:53:31;;;;;;;3.50;2.50;;;;;;;14.83;70.55;100958.29;227541;1201;138055;-76
2021/09/01 20:58:33;;;;;;;3.80;2.60;;;;;;;14.79;70.38;100955.84;227915;1201;139234;-75
2021/09/01 21:03:35;;;;;;;4.50;3.10;;;;;;;14.98;69.28;100960.34;227574;1201;139034;-74
2021/09/01 21:08:38;;;;;;;5.10;3.20;;;;;;;15.00;68.34;100962.70;227849;1208;138419;-75
2021/09/01 21:13:39;;;;;;;5.30;3.40;;;;;;;15.02;67.62;100966.16;228107;1208;138679;-74
2021/09/01 21:18:43;;;;;;;4.80;3.20;;;;;;;14.95;67.15;100978.45;228478;1201;138318;-72
2021/09/01 21:23:45;;;;;;;5.60;3.20;;;;;;;14.91;67.09;100985.77;228056;1201;138134;-78
2021/09/01 21:28:50;;;;;;;4.60;3.00;;;;;;;14.82;66.72;100993.29;228004;1202;138336;-76
2021/09/01 21:33:53;;;;;;;3.80;3.00;;;;;;;14.82;66.45;100996.20;227993;1201;138952;-77
2021/09/01 21:38:56;;;;;;;4.30;3.80;;;;;;;14.85;66.42;100995.69;227993;1208;138823;-75
2021/09/01 21:44:00;;;;;;;3.30;2.80;;;;;;;14.87;66.67;101001.80;227993;1208;138356;-75
2021/09/01 21:49:03;;;;;;;4.70;3.90;;;;;;;14.79;67.12;101001.27;228017;1202;138758;-75
2021/09/01 21:54:05;;;;;;;5.50;3.60;;;;;;;14.66;67.94;101007.15;227931;1201;138075;-76
2021/09/01 21:59:07;;;;;;;3.20;2.90;;;;;;;14.62;68.15;101010.73;230025;1201;139093;-76
2021/09/01 22:04:09;;;;;;;3.80;3.40;;;;;;;14.54;68.73;101016.36;228227;1201;138412;-74
2021/09/01 22:09:11;;;;;;;5.20;3.60;;;;;;;14.49;69.05;101021.70;227897;1208;139132;-76
2021/09/01 22:14:13;;;;;;;3.90;3.40;;;;;;;14.49;69.02;101027.45;227833;1206;138863;-74
2021/09/01 22:19:15;;;;;;;4.50;3.40;;;;;;;14.54;68.98;101029.73;227119;1208;138881;-75
2021/09/01 22:24:17;;;;;;;5.20;3.70;;;;;;;14.53;69.01;101025.05;227968;1202;138835;-77
2021/09/01 22:29:19;;;;;;;3.70;3.40;;;;;;;14.39;69.21;101025.61;227914;1208;138797;-78
2021/09/01 22:34:20;;;;;;;4.40;3.50;;;;;;;14.27;69.66;101026.65;227884;1201;139780;-75
2021/09/01 22:39:22;;;;;;;6.30;3.70;;;;;;;14.14;70.29;101030.76;227892;1208;139109;-76
2021/09/01 22:44:23;;;;;;;6.20;4.30;;;;;;;14.01;70.60;101028.94;227823;1208;138884;-75
2021/09/01 22:49:25;;;;;;;5.00;3.60;;;;;;;14.05;69.85;101034.48;227837;1201;138880;-74
2021/09/01 22:54:27;;;;;;;4.70;3.80;;;;;;;14.03;69.68;101033.80;227223;1208;139007;-74
2021/09/01 22:59:29;;;;;;;6.00;4.00;;;;;;;13.93;69.63;101039.56;227901;1201;138531;-75